createdAt,value
2019-05-29T00:00:18.768Z,68.50
2019-05-29T00:00:49.937Z,68.60
2019-05-29T00:01:21.872Z,68.60
2019-05-29T00:01:53.303Z,68.60
2019-05-29T00:02:24.425Z,68.60
2019-05-29T00:02:55.540Z,68.60
2019-05-29T00:03:26.658Z,68.60
2019-05-29T00:03:57.830Z,68.50
2019-05-29T00:04:28.969Z,68.60
2019-05-29T00:05:00.094Z,68.60
2019-05-29T00:05:31.526Z,68.60
2019-05-29T00:06:02.938Z,68.50
2019-05-29T00:06:34.317Z,68.60
2019-05-29T00:07:06.120Z,68.60
2019-05-29T00:07:37.306Z,68.60
2019-05-29T00:08:08.431Z,68.60
2019-05-29T00:08:39.583Z,68.60
2019-05-29T00:09:10.699Z,68.60
2019-05-29T00:09:41.827Z,68.60
2019-05-29T00:10:14.303Z,68.60
2019-05-29T00:10:45.542Z,68.60
2019-05-29T00:11:16.966Z,68.70
2019-05-29T00:11:48.106Z,68.60
2019-05-29T00:12:21.099Z,68.60
2019-05-29T00:12:52.081Z,68.60
2019-05-29T00:13:23.210Z,68.70
2019-05-29T00:13:54.335Z,68.60
2019-05-29T00:14:27.385Z,68.60
2019-05-29T00:14:58.577Z,68.70
2019-05-29T00:15:29.784Z,68.70
2019-05-29T00:16:00.913Z,68.70
2019-05-29T00:16:32.048Z,68.70
2019-05-29T00:17:03.420Z,68.70
2019-05-29T00:17:34.558Z,68.70
2019-05-29T00:18:06.301Z,68.70
2019-05-29T00:18:37.495Z,68.70
2019-05-29T00:19:08.813Z,68.70
2019-05-29T00:19:40.207Z,68.70
2019-05-29T00:20:12.349Z,68.70
2019-05-29T00:20:43.499Z,68.70
2019-05-29T00:21:14.762Z,68.70
2019-05-29T00:21:45.918Z,68.70
2019-05-29T00:22:17.052Z,68.60
2019-05-29T00:22:48.201Z,68.70
2019-05-29T00:23:19.330Z,68.70
2019-05-29T00:23:50.484Z,68.70
2019-05-29T00:24:23.194Z,68.70
2019-05-29T00:24:54.467Z,68.70
2019-05-29T00:25:25.587Z,68.70
2019-05-29T00:25:56.715Z,68.70
2019-05-29T00:26:27.843Z,68.70
2019-05-29T00:26:58.979Z,68.80
2019-05-29T00:27:30.123Z,68.80
2019-05-29T00:28:01.492Z,68.70
2019-05-29T00:28:32.627Z,68.80
2019-05-29T00:29:03.748Z,68.80
2019-05-29T00:29:34.890Z,68.70
2019-05-29T00:30:06.939Z,68.80
2019-05-29T00:30:38.150Z,68.80
2019-05-29T00:31:09.901Z,68.70
2019-05-29T00:31:41.085Z,68.60
2019-05-29T00:32:13.428Z,68.70
2019-05-29T00:32:44.662Z,68.70
2019-05-29T00:33:15.786Z,68.70
2019-05-29T00:33:46.933Z,68.60
2019-05-29T00:34:18.063Z,68.60
2019-05-29T00:34:49.260Z,68.60
2019-05-29T00:35:20.646Z,68.60
2019-05-29T00:35:51.776Z,68.60
2019-05-29T00:36:22.889Z,68.60
2019-05-29T00:36:54.016Z,68.60
2019-05-29T00:37:25.162Z,68.60
2019-05-29T00:37:56.527Z,68.60
2019-05-29T00:38:27.651Z,68.60
2019-05-29T00:38:59.044Z,68.60
2019-05-29T00:39:30.163Z,68.60
2019-05-29T00:40:01.511Z,68.50
2019-05-29T00:40:32.633Z,68.50
2019-05-29T00:41:04.001Z,68.50
2019-05-29T00:41:35.122Z,68.50
2019-05-29T00:42:06.950Z,68.50
2019-05-29T00:42:38.136Z,68.50
2019-05-29T00:43:09.266Z,68.60
2019-05-29T00:43:40.442Z,68.50
2019-05-29T00:44:11.606Z,68.50
2019-05-29T00:44:42.729Z,68.50
2019-05-29T00:45:13.875Z,68.50
2019-05-29T00:45:45.249Z,68.50
2019-05-29T00:46:17.557Z,68.50
2019-05-29T00:46:49.023Z,68.50
2019-05-29T00:47:20.166Z,68.50
2019-05-29T00:47:51.294Z,68.50
2019-05-29T00:48:22.452Z,68.60
2019-05-29T00:48:53.578Z,68.60
2019-05-29T00:49:24.699Z,68.60
2019-05-29T00:49:56.087Z,68.60
2019-05-29T00:50:27.242Z,68.50
2019-05-29T00:50:58.382Z,68.60
2019-05-29T00:51:29.833Z,68.70
2019-05-29T00:52:00.995Z,68.70
2019-05-29T00:52:32.161Z,68.70
2019-05-29T00:53:03.273Z,68.60
2019-05-29T00:53:34.408Z,68.70
2019-05-29T00:54:05.531Z,68.60
2019-05-29T00:54:36.672Z,68.70
2019-05-29T00:55:08.729Z,68.60
2019-05-29T00:55:39.999Z,68.60
2019-05-29T00:56:12.406Z,68.70
2019-05-29T00:56:43.803Z,68.70
2019-05-29T00:57:15.311Z,68.70
2019-05-29T00:57:46.550Z,68.70
2019-05-29T00:58:17.694Z,68.70
2019-05-29T00:58:48.837Z,68.70
2019-05-29T00:59:19.970Z,68.60
2019-05-29T00:59:51.118Z,68.70
2019-05-29T01:00:22.264Z,68.70
2019-05-29T01:00:53.393Z,68.70
2019-05-29T01:01:24.511Z,68.70
2019-05-29T01:01:55.639Z,68.70
2019-05-29T01:02:27.010Z,68.70
2019-05-29T01:02:58.137Z,68.70
2019-05-29T01:03:29.318Z,68.70
2019-05-29T01:04:00.442Z,68.60
2019-05-29T01:04:31.595Z,68.70
2019-05-29T01:05:02.694Z,68.70
2019-05-29T01:05:34.046Z,68.70
2019-05-29T01:06:05.174Z,68.70
2019-05-29T01:06:36.298Z,68.70
2019-05-29T01:07:07.425Z,68.70
2019-05-29T01:07:38.541Z,68.70
2019-05-29T01:08:10.465Z,68.70
2019-05-29T01:08:41.709Z,68.70
2019-05-29T01:09:12.826Z,68.70
2019-05-29T01:09:43.985Z,68.70
2019-05-29T01:10:15.143Z,68.70
2019-05-29T01:10:46.262Z,68.70
2019-05-29T01:11:17.385Z,68.70
2019-05-29T01:11:48.750Z,68.70
2019-05-29T01:12:21.202Z,68.70
2019-05-29T01:12:52.489Z,68.70
2019-05-29T01:13:23.679Z,68.70
2019-05-29T01:13:54.818Z,68.60
2019-05-29T01:14:26.214Z,68.60
2019-05-29T01:14:57.333Z,68.70
2019-05-29T01:15:28.727Z,68.60
2019-05-29T01:15:59.842Z,68.60
2019-05-29T01:16:30.968Z,68.60
2019-05-29T01:17:02.128Z,68.60
2019-05-29T01:17:33.261Z,68.60
2019-05-29T01:18:04.399Z,68.60
2019-05-29T01:18:35.553Z,68.60
2019-05-29T01:19:06.690Z,68.60
2019-05-29T01:19:37.821Z,68.60
2019-05-29T01:20:08.942Z,68.60
2019-05-29T01:20:40.062Z,68.60
2019-05-29T01:21:11.800Z,68.70
2019-05-29T01:21:42.926Z,68.60
2019-05-29T01:22:14.142Z,68.70
2019-05-29T01:22:45.293Z,68.70
2019-05-29T01:23:16.440Z,68.60
2019-05-29T01:23:47.563Z,68.60
2019-05-29T01:24:18.725Z,68.60
2019-05-29T01:24:49.913Z,68.60
2019-05-29T01:25:21.048Z,68.60
2019-05-29T01:25:52.191Z,68.60
2019-05-29T01:26:23.342Z,68.60
2019-05-29T01:26:54.532Z,68.60
2019-05-29T01:27:25.675Z,68.50
2019-05-29T01:27:56.794Z,68.50
2019-05-29T01:28:27.963Z,68.40
2019-05-29T01:28:59.077Z,68.50
2019-05-29T01:29:30.229Z,68.50
2019-05-29T01:30:01.351Z,68.60
2019-05-29T01:30:32.490Z,68.50
2019-05-29T01:31:04.115Z,68.50
2019-05-29T01:31:35.226Z,69.20
2019-05-29T01:32:06.607Z,68.40
2019-05-29T01:32:37.787Z,68.40
2019-05-29T01:33:08.946Z,68.40
2019-05-29T01:33:40.103Z,68.40
2019-05-29T01:34:11.222Z,68.40
2019-05-29T01:34:42.604Z,69.20
2019-05-29T01:35:13.956Z,68.50
2019-05-29T01:35:45.085Z,68.50
2019-05-29T01:36:16.238Z,68.50
2019-05-29T01:36:47.375Z,68.50
2019-05-29T01:37:18.542Z,68.50
2019-05-29T01:37:49.676Z,68.60
2019-05-29T01:38:21.524Z,68.60
2019-05-29T01:38:52.768Z,68.60
2019-05-29T01:39:23.930Z,68.60
2019-05-29T01:39:55.064Z,68.60
2019-05-29T01:40:28.313Z,68.70
2019-05-29T01:40:59.026Z,68.60
2019-05-29T01:41:30.163Z,68.70
2019-05-29T01:42:01.278Z,68.90
2019-05-29T01:42:32.433Z,68.70
2019-05-29T01:43:03.798Z,68.70
2019-05-29T01:43:35.194Z,68.60
2019-05-29T01:44:06.346Z,68.60
2019-05-29T01:44:37.500Z,68.60
2019-05-29T01:45:08.919Z,68.60
2019-05-29T01:45:40.140Z,68.60
2019-05-29T01:46:11.301Z,68.60
2019-05-29T01:46:42.659Z,68.60
2019-05-29T01:47:15.281Z,68.60
2019-05-29T01:47:46.770Z,68.60
2019-05-29T01:48:17.921Z,68.60
2019-05-29T01:48:49.041Z,68.60
2019-05-29T01:49:20.180Z,68.60
2019-05-29T01:49:51.546Z,68.60
2019-05-29T01:50:23.696Z,68.60
2019-05-29T01:50:54.869Z,68.60
2019-05-29T01:51:26.274Z,68.60
2019-05-29T01:51:57.395Z,68.60
2019-05-29T01:52:28.766Z,68.60
2019-05-29T01:53:00.126Z,68.50
2019-05-29T01:53:31.518Z,68.50
2019-05-29T01:54:02.653Z,68.60
2019-05-29T01:54:33.805Z,68.50
2019-05-29T01:55:04.943Z,68.40
2019-05-29T01:55:36.298Z,68.40
2019-05-29T01:56:07.416Z,68.30
2019-05-29T01:56:38.555Z,68.40
2019-05-29T01:57:09.686Z,68.30
2019-05-29T01:57:41.074Z,68.40
2019-05-29T01:58:12.195Z,68.30
2019-05-29T01:58:43.564Z,68.30
2019-05-29T01:59:15.705Z,68.30
2019-05-29T01:59:46.915Z,68.30
2019-05-29T02:00:18.042Z,68.30
2019-05-29T02:00:49.165Z,68.30
2019-05-29T02:01:20.287Z,68.30
2019-05-29T02:01:51.674Z,68.30
2019-05-29T02:02:23.961Z,68.30
2019-05-29T02:02:55.160Z,68.20
2019-05-29T02:03:26.290Z,68.30
2019-05-29T02:03:57.425Z,68.20
2019-05-29T02:04:28.597Z,68.20
2019-05-29T02:04:59.781Z,68.20
2019-05-29T02:05:31.108Z,68.20
2019-05-29T02:06:02.260Z,68.20
2019-05-29T02:06:33.383Z,68.20
2019-05-29T02:07:04.508Z,68.20
2019-05-29T02:07:35.642Z,68.20
2019-05-29T02:08:06.803Z,68.20
2019-05-29T02:08:37.937Z,68.20
2019-05-29T02:09:09.064Z,68.20
2019-05-29T02:09:40.423Z,68.20
2019-05-29T02:10:11.572Z,68.20
2019-05-29T02:10:42.997Z,68.20
2019-05-29T02:11:15.021Z,68.20
2019-05-29T02:11:46.459Z,68.20
2019-05-29T02:12:19.288Z,68.20
2019-05-29T02:12:51.098Z,68.20
2019-05-29T02:13:23.538Z,68.20
2019-05-29T02:13:54.822Z,68.20
2019-05-29T02:14:26.897Z,68.20
2019-05-29T02:14:58.062Z,68.20
2019-05-29T02:15:32.535Z,68.20
2019-05-29T02:16:02.090Z,68.20
2019-05-29T02:16:33.215Z,68.20
2019-05-29T02:17:04.579Z,68.30
2019-05-29T02:17:35.747Z,68.30
2019-05-29T02:18:06.890Z,68.30
2019-05-29T02:18:40.366Z,68.30
2019-05-29T02:19:11.877Z,68.20
2019-05-29T02:19:43.017Z,68.20
2019-05-29T02:20:14.142Z,68.20
2019-05-29T02:20:45.498Z,68.20
2019-05-29T02:21:17.914Z,68.20
2019-05-29T02:21:49.171Z,68.20
2019-05-29T02:22:20.974Z,68.20
2019-05-29T02:22:52.164Z,68.20
2019-05-29T02:23:24.191Z,68.30
2019-05-29T02:23:55.546Z,68.20
2019-05-29T02:24:27.436Z,68.20
2019-05-29T02:24:58.690Z,68.20
2019-05-29T02:25:29.869Z,68.20
2019-05-29T02:26:01.299Z,68.20
2019-05-29T02:26:32.418Z,68.20
2019-05-29T02:27:03.555Z,68.20
2019-05-29T02:27:34.914Z,68.20
2019-05-29T02:28:06.026Z,68.20
2019-05-29T02:28:37.146Z,68.20
2019-05-29T02:29:08.541Z,68.20
2019-05-29T02:29:39.638Z,68.20
2019-05-29T02:30:10.787Z,68.20
2019-05-29T02:30:41.911Z,68.20
2019-05-29T02:31:13.055Z,68.20
2019-05-29T02:31:44.218Z,68.20
2019-05-29T02:32:15.315Z,68.20
2019-05-29T02:32:46.437Z,68.20
2019-05-29T02:33:17.657Z,68.20
2019-05-29T02:33:48.783Z,68.20
2019-05-29T02:34:20.165Z,68.20
2019-05-29T02:34:51.898Z,68.90
2019-05-29T02:35:24.647Z,68.10
2019-05-29T02:35:55.892Z,68.10
2019-05-29T02:36:28.597Z,68.10
2019-05-29T02:36:59.821Z,68.00
2019-05-29T02:37:30.958Z,68.00
2019-05-29T02:38:02.083Z,68.00
2019-05-29T02:38:33.224Z,68.00
2019-05-29T02:39:04.372Z,68.00
2019-05-29T02:39:35.541Z,67.90
2019-05-29T02:40:06.642Z,67.90
2019-05-29T02:40:37.770Z,67.90
2019-05-29T02:41:08.902Z,67.90
2019-05-29T02:41:40.037Z,67.90
2019-05-29T02:42:11.147Z,67.90
2019-05-29T02:42:42.303Z,67.90
2019-05-29T02:43:13.437Z,67.90
2019-05-29T02:43:44.580Z,67.80
2019-05-29T02:44:15.704Z,67.90
2019-05-29T02:44:46.833Z,67.90
2019-05-29T02:45:19.481Z,67.90
2019-05-29T02:45:54.820Z,67.90
2019-05-29T02:46:25.773Z,67.80
2019-05-29T02:46:56.964Z,67.90
2019-05-29T02:47:28.608Z,67.90
2019-05-29T02:48:00.963Z,67.80
2019-05-29T02:48:32.077Z,67.80
2019-05-29T02:49:03.225Z,67.80
2019-05-29T02:49:34.367Z,67.80
2019-05-29T02:50:05.494Z,67.80
2019-05-29T02:50:36.637Z,67.70
2019-05-29T02:51:11.944Z,67.80
2019-05-29T02:51:40.598Z,67.70
2019-05-29T02:52:11.968Z,67.80
2019-05-29T02:52:43.099Z,67.70
2019-05-29T02:53:14.253Z,67.70
2019-05-29T02:53:45.378Z,67.70
2019-05-29T02:54:16.507Z,67.70
2019-05-29T02:54:47.869Z,67.70
2019-05-29T02:55:20.587Z,67.70
2019-05-29T02:55:51.930Z,67.70
2019-05-29T02:56:24.696Z,67.70
2019-05-29T02:56:56.004Z,67.70
2019-05-29T02:57:28.959Z,67.70
2019-05-29T02:58:00.267Z,67.70
2019-05-29T02:58:31.863Z,67.70
2019-05-29T02:59:03.114Z,67.70
2019-05-29T02:59:34.257Z,67.70
2019-05-29T03:00:05.379Z,67.70
2019-05-29T03:00:36.560Z,67.80
2019-05-29T03:01:07.724Z,67.80
2019-05-29T03:01:38.883Z,67.90
2019-05-29T03:02:10.235Z,67.90
2019-05-29T03:02:41.375Z,67.90
2019-05-29T03:03:12.552Z,67.90
2019-05-29T03:03:43.661Z,67.90
2019-05-29T03:04:14.800Z,67.90
2019-05-29T03:04:45.907Z,67.90
2019-05-29T03:05:17.274Z,67.90
2019-05-29T03:05:48.428Z,67.90
2019-05-29T03:06:19.554Z,67.90
2019-05-29T03:06:50.906Z,67.90
2019-05-29T03:07:22.310Z,67.90
2019-05-29T03:07:53.625Z,67.90
2019-05-29T03:08:26.690Z,67.90
2019-05-29T03:08:57.614Z,67.90
2019-05-29T03:09:28.785Z,67.90
2019-05-29T03:09:59.949Z,68.00
2019-05-29T03:10:32.709Z,68.00
2019-05-29T03:11:03.994Z,68.00
2019-05-29T03:11:35.351Z,68.00
2019-05-29T03:12:06.471Z,68.00
2019-05-29T03:12:37.598Z,68.00
2019-05-29T03:13:08.966Z,68.00
2019-05-29T03:13:40.103Z,68.00
2019-05-29T03:14:11.231Z,67.90
2019-05-29T03:14:42.375Z,67.90
2019-05-29T03:15:13.507Z,67.90
2019-05-29T03:15:44.670Z,68.10
2019-05-29T03:16:15.845Z,67.90
2019-05-29T03:16:46.993Z,67.90
2019-05-29T03:17:18.123Z,67.90
2019-05-29T03:17:49.283Z,67.90
2019-05-29T03:18:20.406Z,67.90
2019-05-29T03:18:51.525Z,67.90
2019-05-29T03:19:23.887Z,67.90
2019-05-29T03:19:55.163Z,67.90
2019-05-29T03:20:26.281Z,68.60
2019-05-29T03:20:57.436Z,67.70
2019-05-29T03:21:30.070Z,67.70
2019-05-29T03:22:01.622Z,67.70
2019-05-29T03:22:33.770Z,67.70
2019-05-29T03:23:05.590Z,67.70
2019-05-29T03:23:36.730Z,67.70
2019-05-29T03:24:07.850Z,67.70
2019-05-29T03:24:39.010Z,67.70
2019-05-29T03:25:10.131Z,67.70
2019-05-29T03:25:41.267Z,67.60
2019-05-29T03:26:12.425Z,67.60
2019-05-29T03:26:43.531Z,67.60
2019-05-29T03:27:14.642Z,67.60
2019-05-29T03:27:45.783Z,67.60
2019-05-29T03:28:16.943Z,67.50
2019-05-29T03:28:48.063Z,67.60
2019-05-29T03:29:19.201Z,67.60
2019-05-29T03:29:50.330Z,67.60
2019-05-29T03:30:21.519Z,67.60
2019-05-29T03:30:52.780Z,67.60
2019-05-29T03:31:23.882Z,67.60
2019-05-29T03:31:55.015Z,67.60
2019-05-29T03:32:28.276Z,67.60
2019-05-29T03:32:59.022Z,67.60
2019-05-29T03:33:36.060Z,67.60
2019-05-29T03:34:03.013Z,67.60
2019-05-29T03:34:39.206Z,67.70
2019-05-29T03:35:07.236Z,67.60
2019-05-29T03:35:46.229Z,67.60
2019-05-29T03:36:11.223Z,67.60
2019-05-29T03:36:47.778Z,67.60
2019-05-29T03:37:15.551Z,67.60
2019-05-29T03:37:46.670Z,67.60
2019-05-29T03:38:17.840Z,67.50
2019-05-29T03:38:48.943Z,67.50
2019-05-29T03:39:20.091Z,67.60
2019-05-29T03:39:51.457Z,67.50
2019-05-29T03:40:22.607Z,67.50
2019-05-29T03:40:53.735Z,67.50
2019-05-29T03:41:26.194Z,67.50
2019-05-29T03:41:57.388Z,67.50
2019-05-29T03:42:28.524Z,67.40
2019-05-29T03:42:59.637Z,67.40
2019-05-29T03:43:31.554Z,67.50
2019-05-29T03:44:03.624Z,67.50
2019-05-29T03:44:35.389Z,67.50
2019-05-29T03:45:06.691Z,67.50
2019-05-29T03:45:38.118Z,67.50
2019-05-29T03:46:26.533Z,67.40
2019-05-29T03:46:45.562Z,67.50
2019-05-29T03:47:15.020Z,67.50
2019-05-29T03:47:46.387Z,67.50
2019-05-29T03:48:17.518Z,67.50
2019-05-29T03:48:48.913Z,67.50
2019-05-29T03:49:20.282Z,67.50
2019-05-29T03:49:51.403Z,67.40
2019-05-29T03:50:22.786Z,67.50
2019-05-29T03:50:53.907Z,67.50
2019-05-29T03:51:27.017Z,67.50
2019-05-29T03:51:57.903Z,67.50
2019-05-29T03:52:30.275Z,67.50
2019-05-29T03:53:01.731Z,67.50
2019-05-29T03:53:33.754Z,67.50
2019-05-29T03:54:05.710Z,67.50
2019-05-29T03:54:38.571Z,67.50
2019-05-29T03:55:09.973Z,67.50
2019-05-29T03:55:41.376Z,67.50
2019-05-29T03:56:12.491Z,67.50
2019-05-29T03:56:43.628Z,67.40
2019-05-29T03:57:14.749Z,67.50
2019-05-29T03:57:45.871Z,67.50
2019-05-29T03:58:16.997Z,67.50
2019-05-29T03:58:48.129Z,67.40
2019-05-29T03:59:19.271Z,67.40
2019-05-29T03:59:50.385Z,67.40
2019-05-29T04:00:21.590Z,67.30
2019-05-29T04:00:52.741Z,67.40
2019-05-29T04:01:23.892Z,67.30
2019-05-29T04:01:55.011Z,67.30
2019-05-29T04:02:26.716Z,67.20
2019-05-29T04:02:58.204Z,67.30
2019-05-29T04:03:30.962Z,67.20
2019-05-29T04:04:02.587Z,67.20
2019-05-29T04:04:35.693Z,67.20
2019-05-29T04:05:06.791Z,67.30
2019-05-29T04:05:38.179Z,67.20
2019-05-29T04:06:09.570Z,67.30
2019-05-29T04:06:40.948Z,67.20
2019-05-29T04:07:12.079Z,67.20
2019-05-29T04:07:43.206Z,67.20
2019-05-29T04:08:14.597Z,67.20
2019-05-29T04:08:45.734Z,67.20
2019-05-29T04:09:16.963Z,67.20
2019-05-29T04:09:48.336Z,67.20
2019-05-29T04:10:19.479Z,67.20
2019-05-29T04:10:50.626Z,67.20
2019-05-29T04:11:21.749Z,67.20
2019-05-29T04:11:52.875Z,67.20
2019-05-29T04:12:24.271Z,67.20
2019-05-29T04:12:55.685Z,67.20
2019-05-29T04:13:27.455Z,67.20
2019-05-29T04:13:58.778Z,67.20
2019-05-29T04:14:31.528Z,67.10
2019-05-29T04:15:02.733Z,67.20
2019-05-29T04:15:34.436Z,67.10
2019-05-29T04:16:06.759Z,67.10
2019-05-29T04:16:58.656Z,67.00
2019-05-29T04:17:11.002Z,67.00
2019-05-29T04:17:42.393Z,67.00
2019-05-29T04:18:13.515Z,67.00
2019-05-29T04:18:44.627Z,67.00
2019-05-29T04:19:15.756Z,67.00
2019-05-29T04:19:46.880Z,66.90
2019-05-29T04:20:18.272Z,67.00
2019-05-29T04:20:49.409Z,67.00
2019-05-29T04:21:20.539Z,67.00
2019-05-29T04:21:51.662Z,67.00
2019-05-29T04:22:22.808Z,67.00
2019-05-29T04:22:54.175Z,67.00
2019-05-29T04:23:25.339Z,67.00
2019-05-29T04:23:56.454Z,67.70
2019-05-29T04:24:27.946Z,66.90
2019-05-29T04:24:59.201Z,66.90
2019-05-29T04:25:35.159Z,66.90
2019-05-29T04:26:03.204Z,67.00
2019-05-29T04:26:36.090Z,67.10
2019-05-29T04:27:07.409Z,67.00
2019-05-29T04:27:38.595Z,67.20
2019-05-29T04:28:09.754Z,67.10
2019-05-29T04:28:40.870Z,67.10
2019-05-29T04:29:12.045Z,67.10
2019-05-29T04:29:43.196Z,67.20
2019-05-29T04:30:14.345Z,67.20
2019-05-29T04:30:45.457Z,67.10
2019-05-29T04:31:16.583Z,67.20
2019-05-29T04:31:47.708Z,67.20
2019-05-29T04:32:18.830Z,67.20
2019-05-29T04:32:49.993Z,67.20
2019-05-29T04:33:21.432Z,67.20
2019-05-29T04:33:52.576Z,67.20
2019-05-29T04:34:23.964Z,67.20
2019-05-29T04:34:55.082Z,67.20
2019-05-29T04:35:26.295Z,67.10
2019-05-29T04:35:57.675Z,67.10
2019-05-29T04:36:30.621Z,67.10
2019-05-29T04:37:01.651Z,67.00
2019-05-29T04:37:34.313Z,67.10
2019-05-29T04:38:05.500Z,67.00
2019-05-29T04:38:38.494Z,67.00
2019-05-29T04:39:09.508Z,67.00
2019-05-29T04:39:40.892Z,67.00
2019-05-29T04:40:12.044Z,67.00
2019-05-29T04:40:43.403Z,67.00
2019-05-29T04:41:14.536Z,67.00
2019-05-29T04:41:45.663Z,67.00
2019-05-29T04:42:16.780Z,66.90
2019-05-29T04:42:48.148Z,66.90
2019-05-29T04:43:19.547Z,67.00
2019-05-29T04:43:50.683Z,66.90
2019-05-29T04:44:22.040Z,66.90
2019-05-29T04:44:53.238Z,66.90
2019-05-29T04:45:24.406Z,66.90
2019-05-29T04:45:55.521Z,66.90
2019-05-29T04:46:26.660Z,66.90
2019-05-29T04:47:10.262Z,66.90
2019-05-29T04:47:31.118Z,66.90
2019-05-29T04:48:02.321Z,66.90
2019-05-29T04:48:35.651Z,66.90
2019-05-29T04:49:06.634Z,66.90
2019-05-29T04:49:39.774Z,66.90
2019-05-29T04:50:11.057Z,66.90
2019-05-29T04:50:42.205Z,66.90
2019-05-29T04:51:13.318Z,66.90
2019-05-29T04:51:44.447Z,66.90
2019-05-29T04:52:15.582Z,66.90
2019-05-29T04:52:46.700Z,66.90
2019-05-29T04:53:17.817Z,66.80
2019-05-29T04:53:48.965Z,66.90
2019-05-29T04:54:20.098Z,66.90
2019-05-29T04:54:51.229Z,66.80
2019-05-29T04:55:22.660Z,66.80
2019-05-29T04:55:53.843Z,66.80
2019-05-29T04:56:24.973Z,66.70
2019-05-29T04:56:56.095Z,66.90
2019-05-29T04:57:29.153Z,66.80
2019-05-29T04:58:00.400Z,66.90
2019-05-29T04:58:32.776Z,66.80
2019-05-29T04:59:03.938Z,66.70
2019-05-29T04:59:35.086Z,66.70
2019-05-29T05:00:06.452Z,66.70
2019-05-29T05:00:37.814Z,66.70
2019-05-29T05:01:08.935Z,66.80
2019-05-29T05:01:40.063Z,66.90
2019-05-29T05:02:11.182Z,66.80
2019-05-29T05:02:42.337Z,66.80
2019-05-29T05:03:13.461Z,66.70
2019-05-29T05:03:44.817Z,66.90
2019-05-29T05:04:16.186Z,66.80
2019-05-29T05:04:47.581Z,66.70
2019-05-29T05:05:19.628Z,66.70
2019-05-29T05:05:51.157Z,66.60
2019-05-29T05:06:22.273Z,66.60
2019-05-29T05:06:53.402Z,66.70
2019-05-29T05:07:24.615Z,66.70
2019-05-29T05:07:55.780Z,66.70
2019-05-29T05:08:26.951Z,67.50
2019-05-29T05:08:58.097Z,66.70
2019-05-29T05:09:29.298Z,66.70
2019-05-29T05:10:00.437Z,66.70
2019-05-29T05:10:31.567Z,66.70
2019-05-29T05:11:02.692Z,66.70
2019-05-29T05:11:33.834Z,66.70
2019-05-29T05:12:05.210Z,66.80
2019-05-29T05:12:37.731Z,66.80
2019-05-29T05:13:09.315Z,66.70
2019-05-29T05:13:40.474Z,66.80
2019-05-29T05:14:11.648Z,66.90
2019-05-29T05:14:42.791Z,67.60
2019-05-29T05:15:13.933Z,67.60
2019-05-29T05:15:45.057Z,67.60
2019-05-29T05:16:16.445Z,66.80
2019-05-29T05:16:47.572Z,66.80
2019-05-29T05:17:26.358Z,66.70
2019-05-29T05:17:51.552Z,66.90
2019-05-29T05:18:22.667Z,66.90
2019-05-29T05:18:53.801Z,66.90
2019-05-29T05:19:24.992Z,66.90
2019-05-29T05:19:56.351Z,66.90
2019-05-29T05:20:27.487Z,66.90
2019-05-29T05:20:58.642Z,66.90
2019-05-29T05:21:29.882Z,66.90
2019-05-29T05:22:01.322Z,66.90
2019-05-29T05:22:32.439Z,66.90
2019-05-29T05:23:03.817Z,67.70
2019-05-29T05:23:36.067Z,66.70
2019-05-29T05:24:07.575Z,66.70
2019-05-29T05:24:43.451Z,66.70
2019-05-29T05:25:11.588Z,66.70
2019-05-29T05:25:42.777Z,66.70
2019-05-29T05:26:13.937Z,66.70
2019-05-29T05:26:45.093Z,66.70
2019-05-29T05:27:16.445Z,66.70
2019-05-29T05:27:47.626Z,66.70
2019-05-29T05:28:18.760Z,66.70
2019-05-29T05:28:49.906Z,66.70
2019-05-29T05:29:21.028Z,66.70
2019-05-29T05:29:52.193Z,66.60
2019-05-29T05:30:23.314Z,66.60
2019-05-29T05:30:54.729Z,66.60
2019-05-29T05:31:25.867Z,66.60
2019-05-29T05:31:56.998Z,66.60
2019-05-29T05:32:28.151Z,66.60
2019-05-29T05:32:59.296Z,66.60
2019-05-29T05:33:30.461Z,66.60
2019-05-29T05:34:01.895Z,66.60
2019-05-29T05:34:33.017Z,66.60
2019-05-29T05:35:04.154Z,66.60
2019-05-29T05:35:35.278Z,66.60
2019-05-29T05:36:06.669Z,66.60
2019-05-29T05:36:38.888Z,66.60
2019-05-29T05:37:10.098Z,66.60
2019-05-29T05:37:41.231Z,66.60
2019-05-29T05:38:12.615Z,66.70
2019-05-29T05:38:43.743Z,66.60
2019-05-29T05:39:15.098Z,66.60
2019-05-29T05:39:46.222Z,66.60
2019-05-29T05:40:17.367Z,66.50
2019-05-29T05:40:48.575Z,66.50
2019-05-29T05:41:20.007Z,66.50
2019-05-29T05:41:51.400Z,66.50
2019-05-29T05:42:22.779Z,66.50
2019-05-29T05:42:54.195Z,66.50
2019-05-29T05:43:25.345Z,66.50
2019-05-29T05:43:56.713Z,66.60
2019-05-29T05:44:27.834Z,67.30
2019-05-29T05:44:58.943Z,66.50
2019-05-29T05:45:30.883Z,66.50
2019-05-29T05:46:02.079Z,66.50
2019-05-29T05:46:33.218Z,66.60
2019-05-29T05:47:04.342Z,66.50
2019-05-29T05:47:50.052Z,66.60
2019-05-29T05:48:08.364Z,66.60
2019-05-29T05:48:39.486Z,66.60
2019-05-29T05:49:10.614Z,66.60
2019-05-29T05:49:41.975Z,66.50
2019-05-29T05:50:13.096Z,66.50
2019-05-29T05:50:44.231Z,66.60
2019-05-29T05:51:15.344Z,66.60
2019-05-29T05:51:46.510Z,66.60
2019-05-29T05:52:17.650Z,66.60
2019-05-29T05:52:48.779Z,66.60
2019-05-29T05:53:19.919Z,66.60
2019-05-29T05:53:51.042Z,66.60
2019-05-29T05:54:22.414Z,66.60
2019-05-29T05:54:53.537Z,66.60
2019-05-29T05:55:24.671Z,66.60
2019-05-29T05:55:55.798Z,66.70
2019-05-29T05:56:26.922Z,66.70
2019-05-29T05:56:58.055Z,66.70
2019-05-29T05:57:29.206Z,66.60
2019-05-29T05:58:00.574Z,66.60
2019-05-29T05:58:31.739Z,66.70
2019-05-29T05:59:02.944Z,66.70
2019-05-29T05:59:35.649Z,66.70
2019-05-29T06:00:06.907Z,66.70
2019-05-29T06:00:38.146Z,66.70
2019-05-29T06:01:09.498Z,66.60
2019-05-29T06:01:42.003Z,66.70
2019-05-29T06:02:13.277Z,66.70
2019-05-29T06:02:44.403Z,66.70
2019-05-29T06:03:15.518Z,66.70
2019-05-29T06:03:46.965Z,66.70
2019-05-29T06:04:18.347Z,66.70
2019-05-29T06:04:49.759Z,66.70
2019-05-29T06:05:20.884Z,66.70
2019-05-29T06:05:52.019Z,66.70
2019-05-29T06:06:23.166Z,66.70
2019-05-29T06:06:54.282Z,66.70
2019-05-29T06:07:25.666Z,66.60
2019-05-29T06:07:56.787Z,66.60
2019-05-29T06:08:28.146Z,66.60
2019-05-29T06:08:59.278Z,66.60
2019-05-29T06:09:32.576Z,66.60
2019-05-29T06:10:03.524Z,66.60
2019-05-29T06:10:34.641Z,66.60
2019-05-29T06:11:05.771Z,66.50
2019-05-29T06:11:36.919Z,66.60
2019-05-29T06:12:08.047Z,66.50
2019-05-29T06:12:40.491Z,66.50
2019-05-29T06:13:11.783Z,66.60
2019-05-29T06:13:42.971Z,66.60
2019-05-29T06:14:14.106Z,66.50
2019-05-29T06:14:45.222Z,66.50
2019-05-29T06:15:16.375Z,66.50
2019-05-29T06:15:47.763Z,66.50
2019-05-29T06:16:18.946Z,66.50
2019-05-29T06:16:50.097Z,66.50
2019-05-29T06:17:22.069Z,66.50
2019-05-29T06:18:17.196Z,66.50
2019-05-29T06:18:26.149Z,66.50
2019-05-29T06:18:57.523Z,66.50
2019-05-29T06:19:28.703Z,66.50
2019-05-29T06:19:59.823Z,66.60
2019-05-29T06:20:30.996Z,66.50
2019-05-29T06:21:02.230Z,66.60
2019-05-29T06:21:34.551Z,66.60
2019-05-29T06:22:05.784Z,66.60
2019-05-29T06:22:37.030Z,66.60
2019-05-29T06:23:08.214Z,66.50
2019-05-29T06:23:39.334Z,66.60
2019-05-29T06:24:10.489Z,66.50
2019-05-29T06:24:43.135Z,66.50
2019-05-29T06:25:14.625Z,66.50
2019-05-29T06:25:45.742Z,66.50
2019-05-29T06:26:16.869Z,66.40
2019-05-29T06:26:47.982Z,66.50
2019-05-29T06:27:19.385Z,66.50
2019-05-29T06:27:50.735Z,66.50
2019-05-29T06:28:21.863Z,66.50
2019-05-29T06:28:53.255Z,66.50
2019-05-29T06:29:24.440Z,66.50
2019-05-29T06:29:55.602Z,66.60
2019-05-29T06:30:26.730Z,66.50
2019-05-29T06:30:57.858Z,66.50
2019-05-29T06:31:29.023Z,66.50
2019-05-29T06:32:00.154Z,66.50
2019-05-29T06:32:31.327Z,66.60
2019-05-29T06:33:02.700Z,66.50
2019-05-29T06:33:35.208Z,66.50
2019-05-29T06:34:06.385Z,66.50
2019-05-29T06:34:37.584Z,66.60
2019-05-29T06:35:08.755Z,66.60
2019-05-29T06:35:39.900Z,66.60
2019-05-29T06:36:11.039Z,66.60
2019-05-29T06:36:42.230Z,66.60
2019-05-29T06:37:13.360Z,66.60
2019-05-29T06:37:44.481Z,66.60
2019-05-29T06:38:15.618Z,66.50
2019-05-29T06:38:46.725Z,66.60
2019-05-29T06:39:17.866Z,66.60
2019-05-29T06:39:49.010Z,66.50
2019-05-29T06:40:20.370Z,66.60
2019-05-29T06:40:51.519Z,66.60
2019-05-29T06:41:22.646Z,66.60
2019-05-29T06:41:53.770Z,66.60
2019-05-29T06:42:25.175Z,66.60
2019-05-29T06:42:56.300Z,66.70
2019-05-29T06:43:27.655Z,66.60
2019-05-29T06:43:58.766Z,66.60